• Join FlightAware (Why Join?)
  • Login
  • US Flag 
03:17PM EDT


 

Airport Tracker/Info


-or-


 

Live Flight TrackerFlight Track Log ✈ AAL110 ✈ 05-Jun-2012 ✈ KORD - LIRF / FCO

Flight Track Log - Related Links

Times and Time Zones

All times are in EDT time to prevent confusion due to time zone crossing. See the AAL110 flight status page for this flight to view local times or setup timezone preferences in your user account.

Time Position Orientation Groundspeed Altitude Reporting Facility
EDT Latitude Longitude Course Direction KTS MPH feet Rate Location/Type
07:10PM 41.9667 -87.8108 270° West  Level FlightAware Approximate
07:11PM 41.9667 -87.8667 87° East 185 213 1,900  Level Chicago TRACON
07:13PM 41.9736 -87.6908 94° East 239 275 6,500 2,280 Climbing Chicago Center
07:14PM 41.9681 -87.5906 93° East 250 288 9,300 2,700 Climbing Chicago Center
07:15PM 41.9642 -87.4817 93° East 268 308 11,900 2,280 Climbing Chicago Center
07:16PM 41.9603 -87.3700 92° East 288 331 13,900 1,680 Climbing Chicago Center
07:17PM 41.9558 -87.2333 95° East 323 372 15,300 1,800 Climbing Chicago Center
07:18PM 41.9467 -87.0858 89° East 368 423 17,500 2,160 Climbing Chicago Center
07:19PM 41.9478 -86.9322 87° East 393 452 19,700 2,040 Climbing Chicago Center
07:20PM 41.9528 -86.7756 89° East 409 471 21,600 1,980 Climbing Chicago Center
07:21PM 41.9550 -86.6078 89° East 429 494 23,700 2,040 Climbing Chicago Center
07:22PM 41.9569 -86.4375 91° East 442 509 25,700 1,740 Climbing Chicago Center
07:23PM 41.9547 -86.2700 97° East 442 509 27,200 1,500 Climbing Chicago Center
07:24PM 41.9394 -86.0978 98° East 447 514 28,800 1,620 Climbing Chicago Center
07:25PM 41.9222 -85.9283 97° East 457 526 30,500 1,620 Climbing Chicago Center
07:26PM 41.9064 -85.7533 96° East 463 533 32,100 1,200 Climbing Chicago Center
07:27PM 41.8925 -85.5811 96° East 463 533 33,000 420 Climbing Chicago Center
07:28PM 41.8783 -85.4061 98° East 463 533 33,000  Level Chicago Center
07:28PM 41.8717 -85.3411 98° East 460 529 33,000  Level Cleveland Center
07:29PM 41.8519 -85.1556 97° East 460 529 33,000  Level Cleveland Center
07:30PM 41.8358 -84.9844 99° East 460 529 33,000  Level Cleveland Center
07:31PM 41.8169 -84.8186 98° East 465 535 33,000  Level Cleveland Center
07:32PM 41.7983 -84.6472 97° East 460 529 33,000  Level Cleveland Center
07:33PM 41.7833 -84.4764 95° East 460 529 33,000  Level Cleveland Center
07:34PM 41.7722 -84.3086 88° East 460 529 33,000  Level Cleveland Center
07:35PM 41.7756 -84.1417 90° East 449 517 33,000  Level Cleveland Center
07:36PM 41.7744 -83.9719 92° East 449 517 33,000  Level Cleveland Center
07:37PM 41.7703 -83.8211 92° East 457 526 33,000  Level Cleveland Center
07:38PM 41.7667 -83.6483 92° East 457 526 33,000  Level Cleveland Center
07:39PM 41.7631 -83.4756 91° East 457 526 33,000  Level Cleveland Center
07:40PM 41.7608 -83.3056 93° East 457 526 33,000  Level Cleveland Center
07:41PM 41.7544 -83.1356 92° East 462 532 33,000  Level Cleveland Center
07:42PM 41.7497 -82.9600 91° East 462 532 33,000  Level Cleveland Center
07:43PM 41.7469 -82.7903 93° East 462 532 33,000  Level Cleveland Center
07:44PM 41.7397 -82.6144 91° East 462 532 33,000  Level Cleveland Center
07:45PM 41.7364 -82.4392 92° East 462 532 33,000  Level Cleveland Center
07:46PM 41.7308 -82.2692 91° East 462 532 33,000  Level Cleveland Center
07:47PM 41.7272 -82.0772 93° East 462 532 33,000  Level Cleveland Center
07:48PM 41.7208 -81.9183 94° East 467 537 33,000  Level Cleveland Center
07:49PM 41.7122 -81.7403 92° East 467 537 33,000  Level Cleveland Center
07:50PM 41.7078 -81.5678 93° East 472 543 33,000  Level Cleveland Center
07:51PM 41.7008 -81.3897 94° East 472 543 33,000  Level Cleveland Center
07:52PM 41.6914 -81.1950 93° East 477 549 33,000  Level Cleveland Center
07:53PM 41.6839 -81.0169 93° East 477 549 33,000  Level Cleveland Center
07:54PM 41.6761 -80.8389 92° East 477 549 33,000  Level Cleveland Center
07:55PM 41.6722 -80.6583 89° East 477 549 33,000  Level Cleveland Center
07:56PM 41.6744 -80.4803 89° East 472 543 33,000  Level Cleveland Center
07:57PM 41.6761 -80.3025 89° East 478 550 33,000  Level Cleveland Center
07:58PM 41.6778 -80.1217 90° East 478 550 33,000  Level Cleveland Center
07:59PM 41.6767 -79.9381 88° East 478 550 33,000  Level Cleveland Center
08:00PM 41.6800 -79.7797 90° East 478 550 33,000  Level Cleveland Center
08:01PM 41.6806 -79.5794 90° East 478 550 33,000  Level Cleveland Center
08:02PM 41.6808 -79.3989 90° East 478 550 33,000  Level Cleveland Center
08:03PM 41.6811 -79.2431 91° East 478 550 33,000  Level Cleveland Center
08:04PM 41.6789 -79.0625 90° East 478 550 33,000  Level Cleveland Center
08:05PM 41.6783 -78.8622 90° East 478 550 33,000  Level Cleveland Center
08:06PM 41.6775 -78.6817 91° East 478 550 33,000  Level Cleveland Center
08:07PM 41.6742 -78.5008 90° East 478 550 33,000  Level Cleveland Center
08:08PM 41.6731 -78.3231 91° East 478 550 33,000  Level Cleveland Center
08:10PM 41.6703 -78.0303 92° East 498 573 33,000  Level New York Center
08:11PM 41.6664 -77.8519 91° East 498 573 33,000  Level New York Center
08:12PM 41.6647 -77.6714 92° East 493 567 33,000  Level New York Center
08:13PM 41.6603 -77.4931 91° East 487 560 33,000  Level New York Center
08:14PM 41.6578 -77.3150 91° East 482 555 33,000  Level New York Center
08:15PM 41.6553 -77.1314 92° East 477 549 33,000  Level New York Center
08:16PM 41.6500 -76.9506 81° East 483 556 33,000  Level New York Center
08:17PM 41.6842 -76.6420 92° East 493 567 33,000  Level FlightAware ADS-B
08:18PM 41.6809 -76.5105 92° East 493 567 33,000  Level FlightAware ADS-B
08:18PM 41.6782 -76.4040 92° East 492 566 33,000  Level FlightAware ADS-B
08:19PM 41.6754 -76.2980 92° East 491 565 33,000  Level FlightAware ADS-B
08:20PM 41.6729 -76.2058 92° East 490 564 33,000  Level FlightAware ADS-B
08:20PM 41.6701 -76.1110 92° East 489 563 33,000  Level FlightAware ADS-B
08:21PM 41.6672 -76.0151 92° East 488 562 33,000  Level FlightAware ADS-B
08:21PM 41.6644 -75.9238 92° East 487 560 33,000  Level FlightAware ADS-B
08:22PM 41.6617 -75.8324 223° Southwest 487 560 33,000  Level FlightAware ADS-B
08:22PM 41.6217 -75.8822 58° Northeast 483 556 33,000  Level New York Center
08:24PM 41.6607 -75.7983 92° East 486 559 33,000 120 Level FlightAware ADS-B
08:24PM 41.6456 -75.3446 93° East 486 559 33,300 840 Climbing FlightAware ADS-B
08:25PM 41.6423 -75.2510 93° East 482 555 33,900 960 Climbing FlightAware ADS-B
08:25PM 41.6391 -75.1619 93° East 476 548 34,300 840 Climbing FlightAware ADS-B
08:26PM 41.6356 -75.0726 93° East 474 545 34,800 660 Climbing FlightAware ADS-B
08:26PM 41.6322 -74.9837 93° East 478 550 35,000 180 Climbing FlightAware ADS-B
08:27PM 41.6289 -74.8945 93° East 482 555 35,000  Level FlightAware ADS-B
08:27PM 41.6253 -74.8035 93° East 485 558 35,000  Level FlightAware ADS-B
08:28PM 41.6215 -74.7110 93° East 485 558 35,000  Level FlightAware ADS-B
08:28PM 41.6178 -74.6205 93° East 483 556 35,000  Level FlightAware ADS-B
08:29PM 41.6142 -74.5302 93° East 483 556 35,000  Level FlightAware ADS-B
08:29PM 41.6102 -74.4406 93° East 482 555 35,000  Level FlightAware ADS-B
08:30PM 41.6059 -74.3448 93° East 481 554 35,000  Level FlightAware ADS-B
08:30PM 41.6020 -74.2551 93° East 479 551 35,000  Level FlightAware ADS-B
08:31PM 41.5977 -74.1574 93° East 478 550 35,000  Level FlightAware ADS-B
08:32PM 41.5934 -74.0635 94° East 476 548 35,000  Level FlightAware ADS-B
08:32PM 41.5892 -73.9753 94° East 475 547 35,000  Level FlightAware ADS-B
08:33PM 41.5850 -73.8871 94° East 474 545 35,000  Level FlightAware ADS-B
08:33PM 41.5805 -73.7952 94° East 473 544 35,000  Level FlightAware ADS-B
08:34PM 41.5752 -73.6851 94° East 474 545 35,000  Level FlightAware ADS-B
08:34PM 41.5705 -73.5936 94° East 474 545 35,000  Level FlightAware ADS-B
08:35PM 41.5658 -73.5009 94° East 475 547 35,000  Level FlightAware ADS-B
08:35PM 41.5611 -73.4110 94° East 476 548 35,000  Level FlightAware ADS-B
08:36PM 41.5565 -73.3213 94° East 476 548 35,000  Level FlightAware ADS-B
08:36PM 41.5513 -73.2254 94° East 477 549 35,000  Level FlightAware ADS-B
08:37PM 41.5469 -73.1332 92° East 479 551 35,000  Level FlightAware ADS-B
08:37PM 41.5438 -73.0313 92° East 479 551 35,000  Level FlightAware ADS-B
08:38PM 41.5404 -72.9233 93° East 479 551 35,000  Level FlightAware ADS-B
08:39PM 41.5371 -72.8308 113° Southeast 481 554 35,000  Level FlightAware ADS-B
08:40PM 41.4853 -72.6700 93° East 479 551 35,000  Level Boston Center
08:41PM 41.4772 -72.4900 93° East 479 551 35,000  Level Boston Center
08:42PM 41.4708 -72.3100 94° East 479 551 35,000  Level Boston Center
08:43PM 41.4600 -72.1161 94° East 479 551 35,000  Level Boston Center
08:44PM 41.4511 -71.9389 92° East 479 551 35,000  Level Boston Center
08:45PM 41.4458 -71.7589 93° East 479 551 35,000  Level Boston Center
08:46PM 41.4383 -71.5817 95° East 479 551 35,000  Level Boston Center
08:47PM 41.4289 -71.4294 94° East 469 540 35,000  Level Boston Center
08:48PM 41.4189 -71.2553 94° East 469 540 35,000  Level Boston Center
08:49PM 41.4106 -71.0783 95° East 469 540 35,000  Level Boston Center
08:50PM 41.3975 -70.8822 94° East 480 552 35,000  Level Boston Center
08:51PM 41.3889 -70.7081 95° East 480 552 35,000  Level Boston Center
08:52PM 41.3775 -70.5286 94° East 480 552 35,000  Level Boston Center
08:53PM 41.3681 -70.3489 95° East 485 558 35,000  Level Boston Center
08:54PM 41.3564 -70.1750 95° East 479 551 35,000  Level Boston Center
08:55PM 41.3444 -69.9986 93° East 474 545 35,000  Level Boston Center
08:56PM 41.3364 -69.8247 96° East 475 547 35,000  Level Boston Center
08:58PM 41.3100 -69.4772 94° East 463 533 35,000  Level New York Center
08:59PM 41.2997 -69.3036 96° East 463 533 35,000  Level New York Center
09:00PM 41.2850 -69.1300 95° East 468 539 35,000  Level New York Center
09:01PM 41.2744 -68.9564 96° East 468 539 35,000  Level New York Center
09:02PM 41.2611 -68.7772 96° East 468 539 35,000  Level New York Center
09:03PM 41.2478 -68.6067 96° East 474 545 35,000  Level New York Center
09:04PM 41.2342 -68.4306 96° East 479 551 35,000  Level New York Center
09:05PM 41.2203 -68.2544 95° East 479 551 35,000  Level New York Center
09:06PM 41.2081 -68.0731 96° East 479 551 35,000  Level New York Center
09:07PM 41.1936 -67.8972 96° East 479 551 35,000  Level New York Center
09:08PM 41.1789 -67.7186 96° East 479 551 35,000  Level New York Center
09:09PM 41.1639 -67.5403 97° East 479 551 35,000  Level New York Center
09:10PM 41.1467 -67.3619 97° East 479 551 35,000  Level New York Center
09:11PM 41.1308 -67.1808 95° East 479 551 35,000  Level New York Center
09:12PM 41.1192 -67.0025 81° East 484 557 35,000  Level New York Center
09:13PM 41.1408 -66.8250 260° West 484 557 35,000  Level New York Center
09:13PM 41.1167 -67.0000 78° East 491 565 35,000  Level New York Oceanic (ODAPS)
09:14PM 41.1722 -66.6469 79° East 484 557 35,000  Level New York Center
09:15PM 41.1975 -66.4717 83° East 484 557 35,000  Level New York Center
09:16PM 41.2139 -66.2914 81° East 489 563 35,000  Level New York Center
09:17PM 41.2342 -66.1108 79° East 489 563 35,000  Level New York Center
09:18PM 41.2606 -65.9350 79° East 489 563 35,000  Level New York Center
09:52PM 42.0000 -60.0000 79° East 537 618 35,000  Level New York Oceanic (ODAPS)
10:43PM 43.0000 -50.0000 71° East 550 633 35,000  Level New York Oceanic (ODAPS)
11:20PM 44.7177 -41.7745 77° East 550 633 35,000  Level FlightAware Transoceanic
11:21PM 44.7525 -41.5659 77° East 550 633 35,000  Level FlightAware Transoceanic
11:22PM 44.7869 -41.3569 77° East 550 633 35,000  Level FlightAware Transoceanic
11:23PM 44.8209 -41.1478 77° East 550 633 35,000  Level FlightAware Transoceanic
11:24PM 44.8545 -40.9383 77° East 550 633 35,000  Level FlightAware Transoceanic
11:25PM 44.8877 -40.7287 77° East 550 633 35,000  Level FlightAware Transoceanic
11:26PM 44.9206 -40.5188 78° East 550 633 35,000  Level FlightAware Transoceanic
11:27PM 44.9531 -40.3086 78° East 550 633 35,000  Level FlightAware Transoceanic
11:28PM 44.9852 -40.0983 78° East 550 633 35,000  Level FlightAware Transoceanic
11:29PM 45.0159 -39.8911 78° East 550 633 35,000  Level FlightAware Transoceanic
11:30PM 45.0453 -39.6867 79° East 550 633 35,000  Level FlightAware Transoceanic
11:31PM 45.0744 -39.4822 79° East 550 633 35,000  Level FlightAware Transoceanic
11:32PM 45.1031 -39.2774 79° East 550 633 35,000  Level FlightAware Transoceanic
11:33PM 45.1314 -39.0724 79° East 550 633 35,000  Level FlightAware Transoceanic
11:34PM 45.1594 -38.8672 79° East 550 633 35,000  Level FlightAware Transoceanic
11:35PM 45.1870 -38.6618 79° East 550 633 35,000  Level FlightAware Transoceanic
11:36PM 45.2142 -38.4562 79° East 550 633 35,000  Level FlightAware Transoceanic
11:37PM 45.2411 -38.2504 80° East 550 633 35,000  Level FlightAware Transoceanic
11:38PM 45.2676 -38.0445 80° East 550 633 35,000  Level FlightAware Transoceanic
11:39PM 45.2937 -37.8383 80° East 550 633 35,000  Level FlightAware Transoceanic
11:40PM 45.3195 -37.6319 80° East 550 633 35,000  Level FlightAware Transoceanic
11:41PM 45.3449 -37.4254 80° East 550 633 35,000  Level FlightAware Transoceanic
11:42PM 45.3699 -37.2187 80° East 550 633 35,000  Level FlightAware Transoceanic
11:43PM 45.3945 -37.0118 80° East 550 633 35,000  Level FlightAware Transoceanic
11:44PM 45.4188 -36.8047 81° East 550 633 35,000  Level FlightAware Transoceanic
11:45PM 45.4427 -36.5974 81° East 550 633 35,000  Level FlightAware Transoceanic
11:46PM 45.4662 -36.3900 81° East 550 633 35,000  Level FlightAware Transoceanic
11:47PM 45.4893 -36.1824 81° East 550 633 35,000  Level FlightAware Transoceanic
11:48PM 45.5121 -35.9746 81° East 550 633 35,000  Level FlightAware Transoceanic
11:49PM 45.5345 -35.7667 81° East 550 633 35,000  Level FlightAware Transoceanic
11:50PM 45.5565 -35.5585 81° East 550 633 35,000  Level FlightAware Transoceanic
11:51PM 45.5782 -35.3503 82° East 550 633 35,000  Level FlightAware Transoceanic
11:52PM 45.5994 -35.1418 82° East 550 633 35,000  Level FlightAware Transoceanic
11:53PM 45.6203 -34.9333 82° East 550 633 35,000  Level FlightAware Transoceanic
11:54PM 45.6408 -34.7245 82° East 550 633 35,000  Level FlightAware Transoceanic
11:55PM 45.6609 -34.5156 82° East 550 633 35,000  Level FlightAware Transoceanic
11:56PM 45.6806 -34.3066 82° East 550 633 35,000  Level FlightAware Transoceanic
11:57PM 45.7000 -34.0974 83° East 550 633 35,000  Level FlightAware Transoceanic
11:58PM 45.7189 -33.8881 83° East 550 633 35,000  Level FlightAware Transoceanic
11:59PM 45.7375 -33.6786 83° East 550 633 35,000  Level FlightAware Transoceanic
12:00AM 45.7557 -33.4690 83° East 550 633 35,000  Level FlightAware Transoceanic
12:01AM 45.7735 -33.2592 83° East 550 633 35,000  Level FlightAware Transoceanic
12:02AM 45.7910 -33.0494 83° East 550 633 35,000  Level FlightAware Transoceanic
12:03AM 45.8080 -32.8394 83° East 550 633 35,000  Level FlightAware Transoceanic
12:04AM 45.8247 -32.6292 84° East 550 633 35,000  Level FlightAware Transoceanic
12:05AM 45.8410 -32.4190 84° East 550 633 35,000  Level FlightAware Transoceanic
12:06AM 45.8569 -32.2086 84° East 550 633 35,000  Level FlightAware Transoceanic
12:07AM 45.8724 -31.9981 84° East 550 633 35,000  Level FlightAware Transoceanic
12:08AM 45.8875 -31.7875 84° East 550 633 35,000  Level FlightAware Transoceanic
12:09AM 45.9022 -31.5767 84° East 550 633 35,000  Level FlightAware Transoceanic
12:10AM 45.9166 -31.3659 84° East 550 633 35,000  Level FlightAware Transoceanic
12:11AM 45.9306 -31.1549 85° East 550 633 35,000  Level FlightAware Transoceanic
12:12AM 45.9441 -30.9439 85° East 550 633 35,000  Level FlightAware Transoceanic
12:13AM 45.9573 -30.7327 85° East 550 633 35,000  Level FlightAware Transoceanic
12:14AM 45.9701 -30.5215 85° East 550 633 35,000  Level FlightAware Transoceanic
12:15AM 45.9825 -30.3102 85° East 550 633 35,000  Level FlightAware Transoceanic
12:16AM 45.9945 -30.0987 81° East 550 633 35,000  Level FlightAware Transoceanic
12:17AM 46.0237 -29.9087 81° East  Level FlightAware Approximate
12:18AM 46.0526 -29.7186 81° East  Level FlightAware Approximate
12:19AM 46.0811 -29.5282 82° East  Level FlightAware Approximate
12:20AM 46.1093 -29.3377 82° East  Level FlightAware Approximate
12:21AM 46.1373 -29.1469 82° East  Level FlightAware Approximate
12:22AM 46.1649 -28.9560 82° East  Level FlightAware Approximate
12:23AM 46.1921 -28.7648 82° East  Level FlightAware Approximate
12:24AM 46.2191 -28.5735 82° East  Level FlightAware Approximate
12:25AM 46.2457 -28.3820 82° East  Level FlightAware Approximate
12:26AM 46.2721 -28.1903 83° East  Level FlightAware Approximate
12:27AM 46.2981 -27.9984 83° East  Level FlightAware Approximate
12:28AM 46.3237 -27.8064 83° East  Level FlightAware Approximate
12:29AM 46.3491 -27.6141 83° East  Level FlightAware Approximate
12:30AM 46.3741 -27.4217 83° East  Level FlightAware Approximate
12:31AM 46.3988 -27.2291 83° East  Level FlightAware Approximate
12:32AM 46.4232 -27.0364 84° East  Level FlightAware Approximate
12:33AM 46.4473 -26.8434 84° East  Level FlightAware Approximate
12:34AM 46.4710 -26.6503 84° East  Level FlightAware Approximate
12:35AM 46.4944 -26.4571 84° East  Level FlightAware Approximate
12:36AM 46.5175 -26.2636 84° East  Level FlightAware Approximate
12:37AM 46.5403 -26.0700 84° East  Level FlightAware Approximate
12:38AM 46.5627 -25.8762 85° East  Level FlightAware Approximate
12:39AM 46.5848 -25.6823 85° East  Level FlightAware Approximate
12:40AM 46.6066 -25.4883 85° East  Level FlightAware Approximate
12:41AM 46.6281 -25.2940 85° East  Level FlightAware Approximate
12:42AM 46.6492 -25.0996 85° East  Level FlightAware Approximate
12:43AM 46.6700 -24.9051 85° East  Level FlightAware Approximate
12:44AM 46.6905 -24.7100 86° East  Level FlightAware Approximate
12:45AM 46.7106 -24.5149 86° East  Level FlightAware Approximate
12:46AM 46.7305 -24.3195 86° East  Level FlightAware Approximate
12:47AM 46.7500 -24.1240 86° East  Level FlightAware Approximate
12:48AM 46.7691 -23.9284 86° East  Level FlightAware Approximate
12:49AM 46.7880 -23.7327 86° East  Level FlightAware Approximate
12:50AM 46.8065 -23.5368 87° East  Level FlightAware Approximate
12:51AM 46.8246 -23.3407 87° East  Level FlightAware Approximate
12:52AM 46.8425 -23.1446 87° East  Level FlightAware Approximate
12:53AM 46.8600 -22.9483 87° East  Level FlightAware Approximate
12:54AM 46.8771 -22.7519 87° East  Level FlightAware Approximate
12:55AM 46.8940 -22.5553 87° East  Level FlightAware Approximate
12:56AM 46.9104 -22.3587 88° East  Level FlightAware Approximate
12:57AM 46.9266 -22.1619 88° East  Level FlightAware Approximate
12:58AM 46.9424 -21.9650 88° East  Level FlightAware Approximate
12:59AM 46.9579 -21.7680 88° East  Level FlightAware Approximate
01:00AM 46.9730 -21.5708 88° East  Level FlightAware Approximate
01:01AM 46.9878 -21.3736 88° East  Level FlightAware Approximate
01:02AM 47.0023 -21.1762 89° East  Level FlightAware Approximate
01:03AM 47.0164 -20.9788 89° East  Level FlightAware Approximate
01:04AM 47.0302 -20.7812 89° East  Level FlightAware Approximate
01:05AM 47.0436 -20.5836 89° East  Level FlightAware Approximate
01:06AM 47.0568 -20.3851 89° East  Level FlightAware Approximate
01:07AM 47.0696 -20.1865 90° East  Level FlightAware Approximate
01:08AM 47.0821 -19.9878 90° East  Level FlightAware Approximate
01:09AM 47.0942 -19.7891 90° East  Level FlightAware Approximate
01:10AM 47.1060 -19.5902 90° East  Level FlightAware Approximate
01:11AM 47.1174 -19.3913 90° East  Level FlightAware Approximate
01:12AM 47.1285 -19.1922 90° East  Level FlightAware Approximate
01:13AM 47.1392 -18.9931 91° East  Level FlightAware Approximate
01:14AM 47.1496 -18.7939 91° East  Level FlightAware Approximate
01:15AM 47.1597 -18.5947 91° East  Level FlightAware Approximate
01:16AM 47.1694 -18.3953 91° East  Level FlightAware Approximate
01:17AM 47.1787 -18.1959 91° East  Level FlightAware Approximate
01:18AM 47.1878 -17.9964 92° East  Level FlightAware Approximate
01:19AM 47.1964 -17.7969 92° East  Level FlightAware Approximate
01:20AM 47.2048 -17.5972 92° East  Level FlightAware Approximate
01:21AM 47.2127 -17.3976 92° East  Level FlightAware Approximate
01:22AM 47.2203 -17.1978 92° East  Level FlightAware Approximate
01:23AM 47.2276 -16.9980 93° East  Level FlightAware Approximate
01:24AM 47.2346 -16.7982 93° East  Level FlightAware Approximate
01:25AM 47.2411 -16.5983 93° East  Level FlightAware Approximate
01:26AM 47.2474 -16.3983 93° East  Level FlightAware Approximate
01:27AM 47.2533 -16.1984 93° East  Level FlightAware Approximate
01:28AM 47.2588 -15.9983 93° East  Level FlightAware Approximate
01:29AM 47.2640 -15.7983 94° East  Level FlightAware Approximate
01:30AM 47.2688 -15.5981 94° East  Level FlightAware Approximate
01:31AM 47.2733 -15.3980 94° East  Level FlightAware Approximate
01:32AM 47.2775 -15.1978 94° East  Level FlightAware Approximate
01:33AM 47.2813 -14.9976 94° East  Level FlightAware Approximate
01:34AM 47.2848 -14.7974 95° East  Level FlightAware Approximate
01:35AM 47.2878 -14.5971 95° East  Level FlightAware Approximate
01:36AM 47.2906 -14.3968 95° East  Level FlightAware Approximate
01:37AM 47.2930 -14.1965 95° East  Level FlightAware Approximate
01:38AM 47.2951 -13.9962 95° East  Level FlightAware Approximate
01:39AM 47.2968 -13.7959 96° East  Level FlightAware Approximate
01:40AM 47.2981 -13.5955 96° East  Level FlightAware Approximate
01:41AM 47.2991 -13.3952 96° East  Level FlightAware Approximate
01:42AM 47.2998 -13.1948 96° East  Level FlightAware Approximate
01:43AM 47.3001 -12.9944 97° East  Level FlightAware Approximate
01:44AM 47.3001 -12.7941 97° East  Level FlightAware Approximate
01:45AM 47.2997 -12.5937 97° East  Level FlightAware Approximate
01:46AM 47.2989 -12.3933 97° East  Level FlightAware Approximate
01:47AM 47.2979 -12.1930 97° East  Level FlightAware Approximate
01:48AM 47.2964 -11.9926 98° East  Level FlightAware Approximate
01:49AM 47.2946 -11.7923 98° East  Level FlightAware Approximate
01:50AM 47.2925 -11.5920 98° East  Level FlightAware Approximate
01:51AM 47.2900 -11.3917 98° East  Level FlightAware Approximate
01:52AM 47.2872 -11.1914 98° East  Level FlightAware Approximate
01:53AM 47.2840 -10.9911 99° East  Level FlightAware Approximate
01:54AM 47.2805 -10.7909 99° East  Level FlightAware Approximate
01:55AM 47.2766 -10.5907 99° East  Level FlightAware Approximate
01:56AM 47.2724 -10.3905 99° East  Level FlightAware Approximate
01:57AM 47.2678 -10.1904 100° East  Level FlightAware Approximate
01:58AM 47.2629 -9.9903 100° East  Level FlightAware Approximate
01:59AM 47.2576 -9.7902 100° East  Level FlightAware Approximate
02:00AM 47.2520 -9.5902 100° East  Level FlightAware Approximate
02:01AM 47.2460 -9.3902 101° East  Level FlightAware Approximate
02:02AM 47.2397 -9.1903 101° East  Level FlightAware Approximate
02:03AM 47.2094 -8.9952 101° East  Level FlightAware Approximate
02:04AM 47.1788 -8.8004 101° East  Level FlightAware Approximate
02:05AM 47.1479 -8.6058 101° East  Level FlightAware Approximate
02:06AM 47.1166 -8.4114 101° East  Level FlightAware Approximate
02:07AM 47.0850 -8.2173 101° East  Level FlightAware Approximate
02:08AM 47.0531 -8.0234 101° East  Level FlightAware Approximate
02:09AM 47.0209 -7.8297 102° East  Level FlightAware Approximate
02:10AM 46.9883 -7.6363 102° East  Level FlightAware Approximate
02:11AM 46.9554 -7.4430 102° East  Level FlightAware Approximate
02:12AM 46.9222 -7.2501 102° East  Level FlightAware Approximate
02:13AM 46.8886 -7.0573 102° East  Level FlightAware Approximate
02:14AM 46.8548 -6.8649 102° East  Level FlightAware Approximate
02:15AM 46.8206 -6.6726 102° East  Level FlightAware Approximate
02:16AM 46.7860 -6.4806 102° East  Level FlightAware Approximate
02:17AM 46.7512 -6.2889 102° East  Level FlightAware Approximate
02:18AM 46.7161 -6.0974 103° East  Level FlightAware Approximate
02:19AM 46.6806 -5.9061 103° East  Level FlightAware Approximate
02:20AM 46.6448 -5.7151 103° East  Level FlightAware Approximate
02:21AM 46.6087 -5.5244 103° East  Level FlightAware Approximate
02:22AM 46.5723 -5.3339 103° East  Level FlightAware Approximate
02:23AM 46.5355 -5.1436 103° East  Level FlightAware Approximate
02:24AM 46.4985 -4.9537 103° East  Level FlightAware Approximate
02:25AM 46.4611 -4.7639 103° East  Level FlightAware Approximate
02:26AM 46.4234 -4.5745 103° East  Level FlightAware Approximate
02:27AM 46.3854 -4.3853 103° East  Level FlightAware Approximate
02:28AM 46.3471 -4.1964 104° East  Level FlightAware Approximate
02:29AM 46.3085 -4.0077 104° East  Level FlightAware Approximate
02:30AM 46.2696 -3.8193 104° East  Level FlightAware Approximate
02:31AM 46.2303 -3.6312 104° East  Level FlightAware Approximate
02:32AM 46.1908 -3.4433 104° East  Level FlightAware Approximate
02:33AM 46.1509 -3.2557 104° East  Level FlightAware Approximate
02:34AM 46.1107 -3.0684 104° East  Level FlightAware Approximate
02:35AM 46.0703 -2.8814 104° East  Level FlightAware Approximate
02:36AM 46.0295 -2.6946 104° East  Level FlightAware Approximate
02:37AM 45.9884 -2.5081 104° East  Level FlightAware Approximate
02:38AM 45.9471 -2.3219 104° East  Level FlightAware Approximate
02:39AM 45.9054 -2.1360 104° East  Level FlightAware Approximate
02:40AM 45.8634 -1.9503 104° East  Level FlightAware Approximate
02:41AM 45.8211 -1.7650 104° East  Level FlightAware Approximate
02:42AM 45.7816 -1.5785 104° East  Level FlightAware Approximate
02:43AM 45.7418 -1.3923 105° East  Level FlightAware Approximate
02:44AM 45.7017 -1.2063 105° East  Level FlightAware Approximate
02:45AM 45.6613 -1.0206 105° East  Level FlightAware Approximate
02:46AM 45.6205 -0.8352 105° East  Level FlightAware Approximate
02:47AM 45.5795 -0.6500 105° East  Level FlightAware Approximate
02:48AM 45.5382 -0.4652 105° East  Level FlightAware Approximate
02:49AM 45.4966 -0.2806 105° East  Level FlightAware Approximate
02:50AM 45.4547 -0.0962 105° East  Level FlightAware Approximate
02:51AM 45.4124 0.0878 105° East  Level FlightAware Approximate
02:52AM 45.3699 0.2716 105° East  Level FlightAware Approximate
02:53AM 45.3271 0.4551 105° East  Level FlightAware Approximate
02:54AM 45.2840 0.6383 105° East  Level FlightAware Approximate
02:55AM 45.2406 0.8212 105° East  Level FlightAware Approximate
02:56AM 45.1970 1.0039 105° East  Level FlightAware Approximate
02:57AM 45.1530 1.1863 105° East  Level FlightAware Approximate
02:58AM 45.1082 1.3704 105° East  Level FlightAware Approximate
02:59AM 45.0632 1.5543 105° East  Level FlightAware Approximate
03:00AM 45.0178 1.7379 105° East  Level FlightAware Approximate
03:01AM 44.9722 1.9212 105° East  Level FlightAware Approximate
03:02AM 44.9262 2.1042 105° East  Level FlightAware Approximate
03:03AM 44.8800 2.2869 105° East  Level FlightAware Approximate
03:04AM 44.8335 2.4693 105° East  Level FlightAware Approximate
03:05AM 44.7867 2.6514 105° East  Level FlightAware Approximate
03:06AM 44.7396 2.8332 104° East  Level FlightAware Approximate
03:07AM 44.6922 3.0147 104° East  Level FlightAware Approximate
03:08AM 44.6445 3.1959 104° East  Level FlightAware Approximate
03:09AM 44.5965 3.3768 104° East  Level FlightAware Approximate
03:10AM 44.5483 3.5575 103° East  Level FlightAware Approximate
03:11AM 44.4998 3.7378 103° East  Level FlightAware Approximate
03:13AM 44.0569 6.2495 127° Southeast 510 587 37,000  Level FlightAware ADS-B
03:13AM 44.0157 6.3259 127° Southeast 510 587 37,000  Level FlightAware ADS-B
03:14AM 43.9696 6.4109 127° Southeast 510 587 37,000  Level FlightAware ADS-B
03:14AM 43.9271 6.4890 127° Southeast 508 585 37,000  Level FlightAware ADS-B
03:15AM 43.8849 6.5668 127° Southeast 508 585 37,000  Level FlightAware ADS-B
03:15AM 43.8342 6.6594 127° Southeast 507 583 37,000  Level FlightAware ADS-B
03:16AM 43.7877 6.7440 127° Southeast 508 585 37,000  Level FlightAware ADS-B
03:16AM 43.7368 6.8371 126° Southeast 507 583 37,000  Level FlightAware ADS-B
03:17AM 43.6950 6.9169 123° Southeast 509 586 37,000  Level FlightAware ADS-B
03:17AM 43.6564 6.9983 122° Southeast 509 586 37,000  Level FlightAware ADS-B
03:18AM 43.6183 7.0837 122° Southeast 508 585 37,000  Level FlightAware ADS-B
03:18AM 43.5812 7.1665 122° Southeast 510 587 37,000  Level FlightAware ADS-B
03:19AM 43.5435 7.2506 122° Southeast 510 587 37,000  Level FlightAware ADS-B
03:19AM 43.5060 7.3332 122° Southeast 510 587 37,000  Level FlightAware ADS-B
03:20AM 43.4679 7.4173 122° Southeast 509 586 37,000  Level FlightAware ADS-B
03:20AM 43.4300 7.5006 122° Southeast 509 586 37,000  Level FlightAware ADS-B
03:21AM 43.3895 7.5891 122° Southeast 509 586 37,000  Level FlightAware ADS-B
03:22AM 43.3495 7.6767 122° Southeast 509 586 37,000  Level FlightAware ADS-B
03:22AM 43.3114 7.7596 122° Southeast 510 587 37,000  Level FlightAware ADS-B
03:23AM 43.2708 7.8480 122° Southeast 510 587 37,000  Level FlightAware ADS-B
03:23AM 43.2314 7.9337 122° Southeast 510 587 37,000  Level FlightAware ADS-B
03:24AM 43.1900 8.0231 122° Southeast 510 587 37,000 -120 Level FlightAware ADS-B
03:24AM 43.1500 8.1094 122° Southeast 509 586 36,900 -1,740 Descending FlightAware ADS-B
03:25AM 43.0817 8.2565 123° Southeast 510 587 34,600 -2,700 Descending FlightAware ADS-B
03:26AM 43.0417 8.3422 122° Southeast 516 594 33,100 -2,940 Descending FlightAware ADS-B
03:26AM 43.0029 8.4257 122° Southeast 516 594 31,600 -2,880 Descending FlightAware ADS-B
03:27AM 42.9627 8.5119 123° Southeast 517 595 30,200 -2,520 Descending FlightAware ADS-B
03:27AM 42.9227 8.5968 123° Southeast 515 593 29,000 -2,400 Descending FlightAware ADS-B
03:28AM 42.8788 8.6900 116° Southeast 510 587 27,600 -2,400 Descending FlightAware ADS-B
03:35AM 42.4281 9.9043 114° Southeast  Level FlightAware Approximate
03:36AM 42.3725 10.0742 109° East  Level FlightAware Approximate
03:37AM 42.3269 10.2499 111° Southeast  Level FlightAware Approximate
03:38AM 42.2782 10.4244 109° East  Level FlightAware Approximate
03:39AM 42.2332 10.6006 110° East  Level FlightAware Approximate
03:40AM 42.1869 10.7760 110° East  Level FlightAware Approximate
03:41AM 42.1394 10.9507 110° East  Level FlightAware Approximate
03:42AM 42.0926 11.1256 109° East  Level FlightAware Approximate
03:43AM 42.0473 11.3010 109° East  Level FlightAware Approximate
03:44AM 42.0032 11.4768 111° Southeast  Level FlightAware Approximate
03:45AM 41.9543 11.6503 111° Southeast  Level FlightAware Approximate
03:46AM 41.9044 11.8222 111° Southeast  Level FlightAware Approximate
03:47AM 41.8557 11.9941 109° East  Level FlightAware Approximate
03:48AM 41.8108 12.1688 96° East  Level FlightAware Approximate
03:49AM 41.7966 12.3528 288° West  Level Estimated
03:50AM 41.9943 11.5051 111° Southeast  Level FlightAware Approximate
03:51AM 41.9457 11.6787 111° Southeast  Level FlightAware Approximate
03:52AM 41.8968 11.8520 111° Southeast  Level FlightAware Approximate
03:53AM 41.8476 12.0251 108° East  Level FlightAware Approximate
03:54AM 41.8054 12.2009 91° East  Level FlightAware Approximate
03:55AM 41.8018 12.3858 272° West  Level Estimated
03:56AM 41.8054 12.2009 91° East  Level Estimated
03:57AM 41.8018 12.3858 269° West  Level Estimated
03:58AM 41.8000 12.2333 71° East  Level FlightAware Approximate
03:59AM 41.8447 12.4084 251° West  Level Estimated
04:00AM 41.8000 12.2333 251° West  Level FlightAware Approximate